Glendale, AZ

1:21 AM MST on August 30, 2014 (GMT -0700)
Peppermill Run | Change Station
CLOSE
Current Station
Personal Weather Station
Location: Peoria, AZ
Elevation: 1150 ft
Nearby Weather Stations

Elev 1150 ft 33.54 °N, 112.19 °W | Updated 0 second ago

Clear
Clear
83.3 °F
Feels Like 82 °F
N
0.0
Wind Variable Wind from East
Gusts 0.0 mph

Today
High -- | Low -- °F
--% Chance of Precip.
Yesterday
High -- | Low -- °F
Precip. -- in
6:01 AM 6:56 PM
Waxing Crescent, 20% visible
Pressure 29.70 in
Visibility 10.0 miles
Clouds Clear
Heat Index 82 °F
Dew Point 51 °F
Humidity 33%
Rainfall 0.00 in
Snow Depth Not available.
UV 0 out of 12
Pollen 5.60 out of 12
Ozone Good
PM2.5 Good
Flu Activity Not available.
METAR KLUF 300758Z AUTO 34005KT 10SM CLR 29/11 A2975 RMK AO2 SLP058 T02880114 VISNO RWY03 CHINO RWY03 $

More Conditions Fewer Conditions

Pressure 29.70 in
Visibility 10.0 miles
Clouds Clear
Heat Index 82 °F
Dew Point 51 °F
Humidity 33%
Rainfall 0.00 in
Snow Depth Not available.
UV 0 out of 12
Pollen 5.60 out of 12
Ozone Good
PM2.5 Good
Flu Activity Not available.
METAR KLUF 300758Z AUTO 34005KT 10SM CLR 29/11 A2975 RMK AO2 SLP058 T02880114 VISNO RWY03 CHINO RWY03 $

More Conditions Fewer Conditions

10-Day Weather Forecast

Almanac

Astronomy

Aug. 30, 2014 Rise Set
Actual Time 6:01 AM MST 6:56 PM MST
Civil Twilight 5:35 AM MST 7:21 PM MST
Nautical Twilight 5:05 AM MST 7:52 PM MST
Astronomical Twilight 4:34 AM MST 8:22 PM MST
Moon 10:36 AM MST 9:49 PM MST
Length of Visible Light 13h 46m
Length of Day
12h 55m
Tomorrow will be 1m 58s shorter.
Waxing Crescent, 20% of the Moon is Illuminated
Today
Waxing Crescent
Sep 2
First Quarter
Sep 8
Full
Sep 15
Last Quarter
Sep 24
New

Today's Extremes

State Highs State Lows

Community

WunderPhotos

Upload Photos

1,748,472 photos uploaded!

Nearby

Air Quality

  Air Quality AQ Index Pollutant
Yesterday Moderate
OZONE
Yesterday Good
PM10
Current Good
OZONE
Current Good
PM2.5
Saturday Moderate
OZONE
Saturday Good
PM10
Saturday Good
CO
Sunday Moderate
OZONE
Sunday Good
PM10
Sunday Good
CO

Snow Depth

Station Depth Elevation
Workman Creek 1 in 6900 ft
Promontory 0 in 7930 ft
Mormon Mountain 0 in 7500 ft
White Horse Lake 1 in 7180 ft
Snowslide Canyon 0 in 9730 ft

Earthquake Activity

City Distance Mag. Time & Date
No recent earthquake activity has been reported nearby.
Minimum magnitude displayed is 2.5.

Coastal Water Temperatures

Place Temperature
No Stations Reporting

Nearby Weather Stations